createdAt,value
2022-08-03T00:01:50.283Z,3.88
2022-08-03T00:04:17.421Z,3.55
2022-08-03T00:06:44.290Z,3.47
2022-08-03T00:09:11.359Z,3.63
2022-08-03T00:11:38.680Z,3.58
2022-08-03T00:14:06.565Z,3.92
2022-08-03T00:16:33.213Z,4.10
2022-08-03T00:19:00.833Z,3.97
2022-08-03T00:21:28.933Z,3.97
2022-08-03T00:23:55.762Z,4.15
2022-08-03T00:26:22.865Z,3.70
2022-08-03T00:28:50.205Z,4.00
2022-08-03T00:31:20.389Z,4.20
2022-08-03T00:34:04.294Z,3.95
2022-08-03T00:36:31.082Z,3.70
2022-08-03T00:38:58.365Z,4.10
2022-08-03T00:41:25.106Z,4.13
2022-08-03T00:43:51.830Z,4.07
2022-08-03T00:46:21.734Z,4.35
2022-08-03T00:48:50.464Z,4.30
2022-08-03T00:51:18.135Z,4.32
2022-08-03T00:53:45.797Z,3.85
2022-08-03T00:56:16.765Z,4.38
2022-08-03T00:58:47.211Z,4.20
2022-08-03T01:01:14.657Z,4.47
2022-08-03T01:03:42.034Z,3.83
2022-08-03T01:06:25.540Z,3.90
2022-08-03T01:09:07.683Z,3.80
2022-08-03T01:12:00.134Z,4.10
2022-08-03T01:14:42.180Z,3.88
2022-08-03T01:17:23.216Z,3.90
2022-08-03T01:19:58.657Z,4.35
2022-08-03T01:22:40.419Z,3.97
2022-08-03T01:25:36.423Z,4.40
2022-08-03T01:28:32.671Z,3.75
2022-08-03T01:31:04.278Z,4.05
2022-08-03T01:33:42.202Z,3.80
2022-08-03T01:36:23.144Z,4.30
2022-08-03T01:38:55.315Z,3.88
2022-08-03T01:41:29.171Z,4.20
2022-08-03T01:44:28.359Z,4.40
2022-08-03T01:46:49.197Z,4.50
2022-08-03T01:49:17.338Z,4.38
2022-08-03T01:52:02.777Z,3.90
2022-08-03T01:54:34.943Z,4.10
2022-08-03T01:57:02.914Z,4.32
2022-08-03T01:59:32.499Z,4.00
2022-08-03T02:02:28.225Z,4.38
2022-08-03T02:04:48.971Z,3.75
2022-08-03T02:07:16.459Z,3.60
2022-08-03T02:09:46.918Z,4.20
2022-08-03T02:12:15.313Z,4.05
2022-08-03T02:14:45.562Z,3.90
2022-08-03T02:17:12.943Z,3.78
2022-08-03T02:19:41.063Z,3.83
2022-08-03T02:22:11.010Z,4.32
2022-08-03T02:24:38.518Z,3.80
2022-08-03T02:27:21.224Z,3.85
2022-08-03T02:29:53.340Z,4.20
2022-08-03T02:32:24.310Z,4.35
2022-08-03T02:34:54.859Z,4.10
2022-08-03T02:37:27.424Z,4.15
2022-08-03T02:42:26.955Z,3.85
2022-08-03T02:44:57.110Z,4.25
2022-08-03T02:47:26.761Z,4.32
2022-08-03T02:49:55.853Z,4.20
2022-08-03T02:52:25.545Z,4.20
2022-08-03T02:54:56.249Z,5.07
2022-08-03T02:57:25.772Z,4.75
2022-08-03T02:59:53.564Z,4.13
2022-08-03T03:02:21.043Z,4.72
2022-08-03T03:05:51.816Z,4.32
2022-08-03T03:07:51.823Z,4.90
2022-08-03T03:10:22.640Z,4.57
2022-08-03T03:12:52.499Z,4.38
2022-08-03T03:15:19.487Z,4.53
2022-08-03T03:17:47.624Z,4.20
2022-08-03T03:20:16.074Z,4.85
2022-08-03T03:22:58.723Z,4.82
2022-08-03T03:25:25.567Z,4.88
2022-08-03T03:27:52.555Z,5.15
2022-08-03T03:30:19.551Z,5.18
2022-08-03T03:32:46.310Z,5.18
2022-08-03T03:35:14.062Z,4.90
2022-08-03T03:37:40.896Z,5.60
2022-08-03T03:40:09.091Z,5.10
2022-08-03T03:42:36.055Z,5.00
2022-08-03T03:45:07.170Z,5.05
2022-08-03T03:47:35.675Z,5.65
2022-08-03T03:50:04.322Z,5.28
2022-08-03T03:52:32.220Z,5.30
2022-08-03T03:55:00.981Z,5.20
2022-08-03T03:57:28.506Z,4.60
2022-08-03T03:59:55.304Z,4.78
2022-08-03T04:02:21.981Z,4.97
2022-08-03T04:05:07.280Z,5.13
2022-08-03T04:08:14.754Z,5.53
2022-08-03T04:10:59.113Z,5.00
2022-08-03T04:13:33.455Z,4.95
2022-08-03T04:16:01.407Z,4.50
2022-08-03T04:18:31.412Z,4.72
2022-08-03T04:21:04.390Z,5.78
2022-08-03T04:23:34.843Z,5.30
2022-08-03T04:26:03.475Z,5.60
2022-08-03T04:28:32.631Z,5.80
2022-08-03T04:31:01.388Z,5.53
2022-08-03T04:33:31.402Z,6.00
2022-08-03T04:36:03.459Z,5.97
2022-08-03T04:38:36.703Z,6.30
2022-08-03T04:41:04.282Z,6.15
2022-08-03T04:43:33.770Z,5.90
2022-08-03T04:46:01.718Z,6.25
2022-08-03T04:48:28.985Z,6.05
2022-08-03T04:50:55.985Z,6.25
2022-08-03T04:53:22.879Z,5.78
2022-08-03T04:55:50.076Z,5.70
2022-08-03T04:58:16.759Z,6.15
2022-08-03T05:00:45.527Z,5.82
2022-08-03T05:03:20.262Z,6.32
2022-08-03T05:05:52.947Z,6.85
2022-08-03T05:08:27.640Z,6.38
2022-08-03T05:10:55.870Z,5.85
2022-08-03T05:13:25.977Z,5.60
2022-08-03T05:15:52.774Z,6.07
2022-08-03T05:18:19.455Z,5.75
2022-08-03T05:20:46.133Z,6.07
2022-08-03T05:23:12.791Z,6.60
2022-08-03T05:25:39.519Z,6.50
2022-08-03T05:28:06.244Z,6.10
2022-08-03T05:30:33.937Z,6.10
2022-08-03T05:33:03.463Z,5.85
2022-08-03T05:35:57.424Z,5.78
2022-08-03T05:38:24.010Z,6.20
2022-08-03T05:41:22.974Z,5.53
2022-08-03T05:43:44.961Z,5.82
2022-08-03T05:46:13.133Z,5.55
2022-08-03T05:48:40.651Z,5.60
2022-08-03T05:51:11.393Z,5.55
2022-08-03T05:53:39.617Z,6.00
2022-08-03T05:56:13.997Z,6.20
2022-08-03T05:58:48.386Z,5.75
2022-08-03T06:01:16.828Z,5.50
2022-08-03T06:03:43.988Z,5.43
2022-08-03T06:06:11.756Z,5.70
2022-08-03T06:08:39.008Z,6.20
2022-08-03T06:11:05.799Z,5.43
2022-08-03T06:13:32.818Z,5.20
2022-08-03T06:15:59.467Z,4.75
2022-08-03T06:18:26.131Z,4.60
2022-08-03T06:20:53.267Z,4.63
2022-08-03T06:23:20.595Z,4.70
2022-08-03T06:25:47.680Z,4.63
2022-08-03T06:31:02.370Z,4.60
2022-08-03T06:34:30.881Z,4.43
2022-08-03T06:36:16.274Z,3.92
2022-08-03T06:38:42.929Z,4.05
2022-08-03T06:41:09.662Z,4.28
2022-08-03T06:43:37.942Z,4.07
2022-08-03T06:46:24.420Z,4.43
2022-08-03T06:48:52.338Z,4.07
2022-08-03T06:51:19.018Z,3.47
2022-08-03T06:53:45.682Z,4.30
2022-08-03T06:56:12.387Z,4.10
2022-08-03T06:58:39.071Z,4.03
2022-08-03T07:01:05.801Z,3.95
2022-08-03T07:03:32.545Z,3.83
2022-08-03T07:05:59.784Z,3.70
2022-08-03T07:08:33.900Z,3.20
2022-08-03T07:11:01.319Z,2.95
2022-08-03T07:13:28.307Z,3.25
2022-08-03T07:15:56.334Z,2.90
2022-08-03T07:18:28.308Z,2.85
2022-08-03T07:20:57.725Z,2.85
2022-08-03T07:23:25.459Z,2.90
2022-08-03T07:25:52.333Z,2.70
2022-08-03T07:28:20.257Z,2.63
2022-08-03T07:30:47.297Z,2.65
2022-08-03T07:33:15.102Z,2.75
2022-08-03T07:35:41.817Z,2.97
2022-08-03T07:38:08.472Z,2.35
2022-08-03T07:40:37.404Z,2.40
2022-08-03T07:43:05.007Z,2.45
2022-08-03T07:45:32.120Z,3.05
2022-08-03T07:47:58.797Z,2.50
2022-08-03T07:50:26.192Z,2.42
2022-08-03T07:52:54.051Z,2.70
2022-08-03T07:55:22.848Z,2.40
2022-08-03T07:58:02.847Z,2.38
2022-08-03T08:00:29.820Z,2.50
2022-08-03T08:02:56.467Z,2.15
2022-08-03T08:05:23.141Z,2.33
2022-08-03T08:07:51.756Z,2.15
2022-08-03T08:10:18.881Z,2.13
2022-08-03T08:12:45.689Z,2.08
2022-08-03T08:15:12.504Z,1.90
2022-08-03T08:17:50.677Z,1.92
2022-08-03T08:20:27.804Z,2.10
2022-08-03T08:23:00.937Z,1.92
2022-08-03T08:25:30.102Z,1.67
2022-08-03T08:28:31.598Z,1.90
2022-08-03T08:30:43.656Z,2.05
2022-08-03T08:33:22.171Z,1.90
2022-08-03T08:35:51.895Z,1.70
2022-08-03T08:38:18.550Z,1.70
2022-08-03T08:40:45.729Z,1.70
2022-08-03T08:43:12.461Z,1.88
2022-08-03T08:45:41.127Z,1.92
2022-08-03T08:48:10.639Z,1.80
2022-08-03T08:50:37.851Z,2.05
2022-08-03T08:53:09.821Z,1.90
2022-08-03T08:55:59.227Z,2.00
2022-08-03T08:58:31.107Z,1.63
2022-08-03T09:00:58.501Z,1.88
2022-08-03T09:03:29.553Z,1.48
2022-08-03T09:06:00.216Z,1.70
2022-08-03T09:08:26.925Z,1.50
2022-08-03T09:10:53.610Z,1.80
2022-08-03T09:13:20.451Z,1.65
2022-08-03T09:15:59.077Z,1.70
2022-08-03T09:21:30.533Z,1.40
2022-08-03T09:24:03.722Z,1.35
2022-08-03T09:26:34.256Z,1.33
2022-08-03T09:29:14.845Z,1.40
2022-08-03T09:31:46.933Z,1.60
2022-08-03T09:34:17.253Z,1.80
2022-08-03T09:36:45.666Z,1.60
2022-08-03T09:39:14.622Z,1.73
2022-08-03T09:41:43.935Z,1.42
2022-08-03T09:44:24.453Z,1.75
2022-08-03T09:46:56.857Z,1.65
2022-08-03T09:49:24.499Z,1.70
2022-08-03T09:52:32.330Z,1.70
2022-08-03T09:54:39.363Z,1.30
2022-08-03T09:57:06.117Z,1.40
2022-08-03T09:59:33.986Z,1.45
2022-08-03T10:02:01.868Z,1.48
2022-08-03T10:04:28.943Z,1.50
2022-08-03T10:07:10.526Z,1.40
2022-08-03T10:09:38.116Z,1.30
2022-08-03T10:12:09.629Z,0.90
2022-08-03T10:14:42.001Z,1.10
2022-08-03T10:17:11.928Z,1.15
2022-08-03T10:19:38.729Z,1.17
2022-08-03T10:22:16.739Z,1.20
2022-08-03T10:24:52.490Z,1.20
2022-08-03T10:27:20.691Z,1.40
2022-08-03T10:29:53.335Z,1.73
2022-08-03T10:32:30.327Z,1.17
2022-08-03T10:35:19.055Z,1.00
2022-08-03T10:38:00.694Z,1.30
2022-08-03T10:40:49.461Z,1.60
2022-08-03T10:43:26.004Z,1.40
2022-08-03T10:45:52.809Z,1.30
2022-08-03T10:48:20.340Z,1.20
2022-08-03T10:50:49.539Z,1.02
2022-08-03T10:53:18.667Z,1.23
2022-08-03T10:58:38.286Z,1.27
2022-08-03T11:01:59.920Z,1.13
2022-08-03T11:04:29.750Z,1.15
2022-08-03T11:07:15.651Z,0.93
2022-08-03T11:09:44.454Z,1.15
2022-08-03T11:12:31.081Z,1.00
2022-08-03T11:15:04.945Z,1.08
2022-08-03T11:17:33.726Z,1.17
2022-08-03T11:20:12.753Z,0.90
2022-08-03T11:22:54.557Z,1.30
2022-08-03T11:25:53.488Z,1.10
2022-08-03T11:28:28.742Z,1.00
2022-08-03T11:30:55.604Z,0.90
2022-08-03T11:33:32.085Z,1.08
2022-08-03T11:36:01.074Z,1.00
2022-08-03T11:38:27.907Z,1.02
2022-08-03T11:40:54.799Z,1.10
2022-08-03T11:43:32.024Z,0.90
2022-08-03T11:46:07.026Z,1.13
2022-08-03T11:48:33.719Z,0.85
2022-08-03T11:51:01.945Z,1.10
2022-08-03T11:53:28.960Z,1.10
2022-08-03T11:55:59.336Z,1.15
2022-08-03T11:59:15.292Z,1.23
2022-08-03T12:01:13.638Z,1.20
2022-08-03T12:03:40.380Z,1.10
2022-08-03T12:06:11.438Z,1.20
2022-08-03T12:08:39.433Z,1.17
2022-08-03T12:11:07.791Z,1.02
2022-08-03T12:14:36.707Z,1.20
2022-08-03T12:16:34.005Z,1.10
2022-08-03T12:19:05.072Z,1.10
2022-08-03T12:21:32.261Z,1.13
2022-08-03T12:24:04.062Z,1.20
2022-08-03T12:26:43.054Z,1.10
2022-08-03T12:29:18.978Z,1.30
2022-08-03T12:31:45.637Z,1.10
2022-08-03T12:34:13.631Z,1.10
2022-08-03T12:36:52.529Z,1.05
2022-08-03T12:39:24.042Z,1.40
2022-08-03T12:41:54.334Z,1.20
2022-08-03T12:44:31.356Z,1.23
2022-08-03T12:46:59.076Z,1.23
2022-08-03T12:49:26.638Z,1.20
2022-08-03T12:51:53.475Z,1.30
2022-08-03T12:54:25.357Z,1.00
2022-08-03T12:57:16.232Z,1.20
2022-08-03T12:59:52.704Z,1.00
2022-08-03T13:02:25.772Z,1.10
2022-08-03T13:04:54.638Z,1.40
2022-08-03T13:07:23.266Z,1.05
2022-08-03T13:09:55.546Z,1.67
2022-08-03T13:12:27.679Z,1.20
2022-08-03T13:14:59.597Z,1.10
2022-08-03T13:17:27.156Z,1.17
2022-08-03T13:19:54.101Z,1.20
2022-08-03T13:22:23.358Z,1.17
2022-08-03T13:24:53.050Z,1.02
2022-08-03T13:28:02.117Z,1.20
2022-08-03T13:30:11.107Z,1.25
2022-08-03T13:32:38.200Z,1.05
2022-08-03T13:35:05.653Z,1.10
2022-08-03T13:37:32.625Z,1.23
2022-08-03T13:40:02.573Z,1.60
2022-08-03T13:42:31.485Z,1.15
2022-08-03T13:44:59.132Z,1.20
2022-08-03T13:47:26.389Z,1.25
2022-08-03T13:49:59.728Z,0.95
2022-08-03T13:52:33.482Z,1.20
2022-08-03T13:55:00.998Z,1.10
2022-08-03T13:58:06.462Z,1.15
2022-08-03T14:00:28.232Z,1.10
2022-08-03T14:03:16.562Z,0.95
2022-08-03T14:05:44.217Z,1.05
2022-08-03T14:08:11.869Z,1.27
2022-08-03T14:10:43.640Z,0.85
2022-08-03T14:13:17.588Z,0.95
2022-08-03T14:15:50.195Z,0.80
2022-08-03T14:18:28.750Z,0.90
2022-08-03T14:21:06.907Z,0.80
2022-08-03T14:23:35.337Z,0.95
2022-08-03T14:26:01.989Z,1.00
2022-08-03T14:28:28.733Z,1.30
2022-08-03T14:30:56.236Z,1.10
2022-08-03T14:33:23.808Z,1.25
2022-08-03T14:35:51.664Z,1.10
2022-08-03T14:38:18.547Z,1.10
2022-08-03T14:40:45.392Z,1.10
2022-08-03T14:43:12.913Z,1.25
2022-08-03T14:45:40.602Z,1.30
2022-08-03T14:49:02.257Z,1.10
2022-08-03T14:50:55.211Z,1.13
2022-08-03T14:53:22.584Z,1.02
2022-08-03T14:55:51.518Z,1.00
2022-08-03T14:58:23.118Z,1.00
2022-08-03T15:00:51.445Z,1.08
2022-08-03T15:03:25.770Z,1.25
2022-08-03T15:05:54.288Z,1.20
2022-08-03T15:08:22.456Z,1.10
2022-08-03T15:10:50.608Z,1.20
2022-08-03T15:13:18.316Z,1.27
2022-08-03T15:15:45.349Z,1.52
2022-08-03T15:18:12.308Z,1.10
2022-08-03T15:20:44.924Z,1.10
2022-08-03T15:23:14.580Z,0.95
2022-08-03T15:26:03.873Z,1.42
2022-08-03T15:28:29.371Z,0.93
2022-08-03T15:30:56.220Z,1.10
2022-08-03T15:33:22.894Z,1.20
2022-08-03T15:35:49.979Z,1.30
2022-08-03T15:38:16.965Z,1.10
2022-08-03T15:40:43.768Z,1.27
2022-08-03T15:43:10.543Z,1.10
2022-08-03T15:45:37.310Z,1.13
2022-08-03T15:48:05.820Z,1.45
2022-08-03T15:50:32.659Z,1.20
2022-08-03T15:52:59.476Z,1.20
2022-08-03T15:55:26.225Z,1.17
2022-08-03T15:59:04.203Z,1.10
2022-08-03T16:00:41.410Z,1.10
2022-08-03T16:03:08.331Z,1.27
2022-08-03T16:05:35.366Z,1.00
2022-08-03T16:08:03.877Z,1.10
2022-08-03T16:10:32.302Z,1.45
2022-08-03T16:13:00.089Z,1.20
2022-08-03T16:15:27.240Z,1.38
2022-08-03T16:17:53.931Z,1.30
2022-08-03T16:20:31.564Z,1.10
2022-08-03T16:23:06.985Z,1.27
2022-08-03T16:25:44.363Z,1.30
2022-08-03T16:28:16.852Z,1.30
2022-08-03T16:30:45.320Z,1.00
2022-08-03T16:33:17.319Z,1.08
2022-08-03T16:35:45.217Z,1.30
2022-08-03T16:38:16.565Z,1.10
2022-08-03T16:40:47.063Z,1.10
2022-08-03T16:43:18.119Z,1.08
2022-08-03T16:48:16.297Z,1.30
2022-08-03T16:50:44.329Z,1.20
2022-08-03T16:53:16.684Z,1.38
2022-08-03T16:55:52.292Z,1.15
2022-08-03T16:58:34.481Z,1.20
2022-08-03T17:01:22.007Z,1.02
2022-08-03T17:04:03.556Z,0.98
2022-08-03T17:06:35.287Z,1.10
2022-08-03T17:09:10.960Z,1.20
2022-08-03T17:11:46.612Z,0.98
2022-08-03T17:14:28.548Z,1.10
2022-08-03T17:17:02.628Z,1.00
2022-08-03T17:19:32.662Z,1.05
2022-08-03T17:22:17.873Z,1.13
2022-08-03T17:24:47.386Z,1.05
2022-08-03T17:28:41.380Z,1.33
2022-08-03T17:30:08.799Z,1.52
2022-08-03T17:32:42.876Z,1.03
2022-08-03T17:35:20.913Z,1.30
2022-08-03T17:37:57.573Z,1.20
2022-08-03T17:40:29.336Z,1.25
2022-08-03T17:42:59.558Z,1.05
2022-08-03T17:45:26.378Z,1.15
2022-08-03T17:48:13.067Z,1.10
2022-08-03T17:51:22.010Z,1.77
2022-08-03T17:54:18.506Z,1.10
2022-08-03T17:56:46.624Z,1.33
2022-08-03T17:59:13.378Z,1.35
2022-08-03T18:02:30.531Z,1.50
2022-08-03T18:05:16.483Z,1.20
2022-08-03T18:07:59.562Z,1.30
2022-08-03T18:10:35.985Z,1.30
2022-08-03T18:13:22.925Z,1.17
2022-08-03T18:16:01.666Z,1.20
2022-08-03T18:18:36.906Z,1.20
2022-08-03T18:21:09.174Z,1.40
2022-08-03T18:23:44.275Z,1.55
2022-08-03T18:26:12.186Z,1.50
2022-08-03T18:28:39.434Z,1.48
2022-08-03T18:31:11.663Z,1.58
2022-08-03T18:34:17.260Z,1.60
2022-08-03T18:36:29.597Z,1.50
2022-08-03T18:38:58.494Z,1.50
2022-08-03T18:41:33.550Z,1.65
2022-08-03T18:47:07.160Z,1.35
2022-08-03T18:50:18.942Z,1.50
2022-08-03T18:53:01.778Z,1.40
2022-08-03T18:55:35.678Z,1.40
2022-08-03T18:58:02.573Z,1.25
2022-08-03T19:00:54.250Z,1.50
2022-08-03T19:03:24.660Z,1.60
2022-08-03T19:06:02.784Z,1.58
2022-08-03T19:08:47.899Z,1.85
2022-08-03T19:11:28.223Z,1.77
2022-08-03T19:13:59.198Z,2.00
2022-08-03T19:16:38.882Z,1.60
2022-08-03T19:21:59.476Z,1.58
2022-08-03T19:24:26.933Z,2.00
2022-08-03T19:26:56.019Z,1.80
2022-08-03T19:29:25.184Z,1.70
2022-08-03T19:32:19.185Z,1.60
2022-08-03T19:34:50.692Z,1.95
2022-08-03T19:37:19.561Z,2.10
2022-08-03T19:39:56.686Z,2.13
2022-08-03T19:42:31.464Z,2.00
2022-08-03T19:45:11.270Z,1.75
2022-08-03T19:47:47.546Z,1.90
2022-08-03T19:50:15.799Z,1.65
2022-08-03T19:52:46.957Z,1.70
2022-08-03T19:55:15.921Z,1.65
2022-08-03T19:57:50.190Z,2.00
2022-08-03T20:00:20.036Z,1.90
2022-08-03T20:02:53.800Z,2.00
2022-08-03T20:05:20.796Z,2.30
2022-08-03T20:07:50.167Z,2.20
2022-08-03T20:10:18.191Z,2.38
2022-08-03T20:12:46.555Z,1.85
2022-08-03T20:15:14.575Z,2.20
2022-08-03T20:17:54.398Z,2.35
2022-08-03T20:20:35.137Z,2.50
2022-08-03T20:23:07.458Z,2.50
2022-08-03T20:28:35.166Z,1.90
2022-08-03T20:31:18.828Z,2.17
2022-08-03T20:33:49.364Z,2.08
2022-08-03T20:36:18.092Z,2.10
2022-08-03T20:38:47.666Z,1.90
2022-08-03T20:41:16.569Z,2.00
2022-08-03T20:43:43.949Z,2.20
2022-08-03T20:46:32.187Z,2.20
2022-08-03T20:48:58.868Z,1.90
2022-08-03T20:51:50.603Z,1.85
2022-08-03T20:54:28.724Z,2.17
2022-08-03T20:56:57.757Z,1.80
2022-08-03T20:59:34.822Z,1.70
2022-08-03T21:02:19.920Z,2.03
2022-08-03T21:04:56.196Z,1.92
2022-08-03T21:07:24.247Z,1.90
2022-08-03T21:09:53.661Z,1.83
2022-08-03T21:12:50.220Z,1.80
2022-08-03T21:12:59.026Z,1.30
2022-08-03T21:13:11.192Z,1.90
2022-08-03T21:16:06.262Z,2.00
2022-08-03T21:18:12.755Z,2.08
2022-08-03T21:20:43.411Z,2.20
2022-08-03T21:23:12.885Z,2.08
2022-08-03T21:26:00.840Z,2.08
2022-08-03T21:28:28.018Z,1.83
2022-08-03T21:30:54.801Z,2.08
2022-08-03T21:33:26.494Z,2.20
2022-08-03T21:35:53.419Z,2.47
2022-08-03T21:38:20.578Z,2.20
2022-08-03T21:40:56.913Z,1.92
2022-08-03T21:43:23.664Z,2.50
2022-08-03T21:45:54.667Z,2.30
2022-08-03T21:48:25.066Z,2.33
2022-08-03T21:50:52.599Z,2.67
2022-08-03T21:53:19.991Z,2.50
2022-08-03T21:56:11.214Z,2.50
2022-08-03T21:58:53.236Z,2.35
2022-08-03T22:01:24.001Z,2.55
2022-08-03T22:03:56.512Z,2.47
2022-08-03T22:06:27.730Z,2.55
2022-08-03T22:08:54.580Z,2.40
2022-08-03T22:11:21.575Z,2.58
2022-08-03T22:13:48.751Z,2.50
2022-08-03T22:16:15.771Z,2.67
2022-08-03T22:18:44.588Z,2.58
2022-08-03T22:21:12.816Z,2.22
2022-08-03T22:23:48.875Z,2.58
2022-08-03T22:26:32.352Z,2.35
2022-08-03T22:29:07.441Z,2.20
2022-08-03T22:31:58.285Z,2.70
2022-08-03T22:34:26.430Z,2.17
2022-08-03T22:36:57.180Z,2.90
2022-08-03T22:39:29.219Z,2.13
2022-08-03T22:41:59.907Z,2.53
2022-08-03T22:44:27.660Z,2.28
2022-08-03T22:46:55.519Z,2.45
2022-08-03T22:49:22.754Z,2.60
2022-08-03T22:51:51.715Z,2.30
2022-08-03T22:54:18.772Z,2.65
2022-08-03T22:56:50.337Z,2.42
2022-08-03T22:59:39.077Z,2.70
2022-08-03T23:02:20.339Z,2.78
2022-08-03T23:04:54.907Z,2.75
2022-08-03T23:07:30.180Z,2.65
2022-08-03T23:09:58.172Z,2.72
2022-08-03T23:12:29.657Z,2.60
2022-08-03T23:15:00.371Z,2.53
2022-08-03T23:17:30.096Z,2.50
2022-08-03T23:20:01.838Z,2.70
2022-08-03T23:22:29.969Z,2.60
2022-08-03T23:24:59.082Z,2.80
2022-08-03T23:27:27.728Z,2.83
2022-08-03T23:29:56.163Z,2.50
2022-08-03T23:32:26.523Z,3.00
2022-08-03T23:35:14.791Z,2.92
2022-08-03T23:38:22.411Z,3.13
2022-08-03T23:40:30.986Z,2.70
2022-08-03T23:42:58.329Z,2.30
2022-08-03T23:45:27.664Z,2.70
2022-08-03T23:47:54.740Z,3.08
2022-08-03T23:50:21.833Z,2.30
2022-08-03T23:53:01.373Z,2.55
2022-08-03T23:55:54.236Z,3.10
